Time;durP1;ratioP1;P1;durP2;ratioP2;P2;SDS_P1;SDS_P2;PMS_P1;PMS_P2;Temp;Humidity;BMP_temperature;BMP_pressure;BME280_temperature;BME280_humidity;BME280_pressure;Samples;Min_cycle;Max_cycle;Signal;HPM_P1;HPM_P2
2022/03/10 00:01:19;;;;;;;0.50;0.50;;;1.70;99.90;;;;;;5053191;28;20420;-68
2022/03/10 00:04:06;;;;;;;0.50;0.50;;;1.60;99.90;;;;;;5052070;28;20458;-68
2022/03/10 00:06:53;;;;;;;0.50;0.50;;;1.60;99.90;;;;;;5052453;28;20498;-68
2022/03/10 00:09:41;;;;;;;0.40;0.40;;;1.70;99.90;;;;;;5047736;28;20428;-66
2022/03/10 00:12:28;;;;;;;0.50;0.50;;;1.60;99.90;;;;;;5052154;28;20418;-69
2022/03/10 00:15:16;;;;;;;0.83;0.83;;;1.60;99.90;;;;;;5053620;28;20428;-67
2022/03/10 00:18:03;;;;;;;0.40;0.40;;;1.60;99.90;;;;;;5052711;28;20457;-67
2022/03/10 00:20:50;;;;;;;0.70;0.70;;;1.50;99.90;;;;;;5052842;28;20440;-67
2022/03/10 00:23:37;;;;;;;0.50;0.50;;;1.50;99.90;;;;;;5052540;28;20467;-68
2022/03/10 00:26:25;;;;;;;0.40;0.40;;;1.50;99.90;;;;;;5052496;28;20444;-68
2022/03/10 00:29:12;;;;;;;0.43;0.43;;;1.50;99.90;;;;;;5052176;28;20416;-68
2022/03/10 00:32:01;;;;;;;0.40;0.40;;;1.40;99.90;;;;;;5052704;28;20503;-68
2022/03/10 00:34:48;;;;;;;0.50;0.50;;;1.40;99.90;;;;;;5052872;28;20475;-68
2022/03/10 00:37:35;;;;;;;0.50;0.50;;;1.30;99.90;;;;;;5052115;28;20836;-66
2022/03/10 00:40:23;;;;;;;0.40;0.40;;;1.30;99.90;;;;;;5052288;28;20941;-66
2022/03/10 00:43:12;;;;;;;0.50;0.50;;;1.30;99.90;;;;;;5051661;28;20491;-66
2022/03/10 00:45:59;;;;;;;0.50;0.50;;;1.30;99.90;;;;;;5052299;28;20490;-66
2022/03/10 00:48:46;;;;;;;0.40;0.40;;;1.20;99.90;;;;;;5052952;28;20416;-66
2022/03/10 00:51:33;;;;;;;0.60;0.60;;;1.20;99.90;;;;;;5052409;28;20441;-67
2022/03/10 00:54:20;;;;;;;0.50;0.50;;;1.20;99.90;;;;;;5052435;28;20478;-68
2022/03/10 00:57:07;;;;;;;0.50;0.50;;;1.20;99.90;;;;;;5051542;28;20451;-67
2022/03/10 00:59:55;;;;;;;0.40;0.40;;;1.20;99.90;;;;;;5052728;28;20913;-68
2022/03/10 01:02:42;;;;;;;0.50;0.50;;;1.10;99.90;;;;;;5051354;28;20473;-68
2022/03/10 01:05:29;;;;;;;0.50;0.50;;;1.10;99.90;;;;;;5051053;28;20425;-68
2022/03/10 01:08:17;;;;;;;0.50;0.50;;;1.10;99.90;;;;;;5052090;28;20448;-67
2022/03/10 01:11:04;;;;;;;0.50;0.50;;;1.10;99.90;;;;;;5051632;28;20428;-67
2022/03/10 01:13:51;;;;;;;0.50;0.50;;;1.10;99.90;;;;;;5052208;28;20947;-67
2022/03/10 01:16:39;;;;;;;0.50;0.50;;;1.10;99.90;;;;;;5052104;28;20484;-68
2022/03/10 01:19:26;;;;;;;1.33;1.33;;;1.10;99.90;;;;;;5051547;28;20514;-68
2022/03/10 01:22:13;;;;;;;0.40;0.40;;;1.10;99.90;;;;;;5052029;28;20452;-68
2022/03/10 01:25:00;;;;;;;0.40;0.40;;;1.00;99.90;;;;;;5051348;28;20428;-67
2022/03/10 01:27:47;;;;;;;0.50;0.50;;;1.00;99.90;;;;;;5051781;28;20449;-68
2022/03/10 01:30:34;;;;;;;0.50;0.50;;;1.10;99.90;;;;;;5051072;28;20417;-67
2022/03/10 01:33:22;;;;;;;0.50;0.50;;;0.90;99.90;;;;;;5052281;28;20427;-66
2022/03/10 01:36:09;;;;;;;0.50;0.50;;;1.00;99.90;;;;;;5066369;28;20425;-67
2022/03/10 01:38:56;;;;;;;1.90;1.80;;;0.90;99.90;;;;;;5067098;28;20432;-67
2022/03/10 01:41:45;;;;;;;0.50;0.50;;;1.00;99.90;;;;;;5065318;28;20451;-66
2022/03/10 01:44:32;;;;;;;0.50;0.50;;;1.00;99.90;;;;;;5064453;28;20541;-67
2022/03/10 01:47:19;;;;;;;0.50;0.50;;;0.80;99.90;;;;;;5063304;28;20441;-67
2022/03/10 01:50:09;;;;;;;0.50;0.50;;;0.80;99.90;;;;;;5056902;28;20813;-66
2022/03/10 01:52:56;;;;;;;0.50;0.50;;;0.80;99.90;;;;;;5055674;28;20429;-67
2022/03/10 01:55:43;;;;;;;0.50;0.50;;;0.80;99.90;;;;;;5063892;28;20424;-66
2022/03/10 01:58:30;;;;;;;0.40;0.40;;;0.70;99.90;;;;;;5057770;28;20417;-67
2022/03/10 02:01:18;;;;;;;0.40;0.40;;;0.70;99.90;;;;;;5056367;28;20494;-67
2022/03/10 02:04:05;;;;;;;0.50;0.50;;;0.60;99.90;;;;;;5062330;28;20461;-67
2022/03/10 02:06:54;;;;;;;0.50;0.50;;;0.70;99.90;;;;;;5072777;28;20476;-67
2022/03/10 02:12:48;;;;;;;0.50;0.50;;;0.60;99.90;;;;;;5069631;28;20428;-67
2022/03/10 02:18:39;;;;;;;0.43;0.43;;;0.60;99.90;;;;;;5054023;28;20429;-67
2022/03/10 02:21:27;;;;;;;0.50;0.50;;;0.60;99.90;;;;;;5054140;28;20434;-68
2022/03/10 02:24:15;;;;;;;0.43;0.43;;;0.60;99.90;;;;;;5054730;28;20501;-68
2022/03/10 02:27:12;;;;;;;0.50;0.50;;;0.60;99.90;;;;;;5054446;28;20437;-68
2022/03/10 02:30:01;;;;;;;0.50;0.50;;;0.60;99.90;;;;;;5054680;28;20425;-68
2022/03/10 02:32:48;;;;;;;0.40;0.40;;;0.70;99.90;;;;;;5053856;28;20429;-67
2022/03/10 02:35:36;;;;;;;0.50;0.50;;;0.70;99.90;;;;;;5054281;28;20433;-67
2022/03/10 02:38:22;;;;;;;0.50;0.50;;;0.50;99.90;;;;;;5037770;28;20445;-67
2022/03/10 02:41:11;;;;;;;0.47;0.47;;;0.50;99.90;;;;;;5037845;28;20457;-67
2022/03/10 02:43:58;;;;;;;0.40;0.40;;;0.60;99.90;;;;;;5038759;28;20776;-67
2022/03/10 02:46:45;;;;;;;0.50;0.50;;;0.50;99.90;;;;;;5038208;28;20539;-67
2022/03/10 02:49:32;;;;;;;0.50;0.50;;;0.50;99.90;;;;;;5039397;28;20439;-67
2022/03/10 02:52:19;;;;;;;0.50;0.50;;;0.50;99.90;;;;;;5039273;28;20418;-67
2022/03/10 02:55:07;;;;;;;0.50;0.50;;;0.50;99.90;;;;;;5037727;28;20437;-67
2022/03/10 02:57:56;;;;;;;0.50;0.50;;;0.40;99.90;;;;;;5038215;28;20455;-68
2022/03/10 03:00:43;;;;;;;0.50;0.50;;;0.40;99.90;;;;;;5038478;28;20422;-68
2022/03/10 03:03:30;;;;;;;0.50;0.50;;;0.30;99.90;;;;;;5038020;28;20465;-67
2022/03/10 03:06:19;;;;;;;0.50;0.50;;;0.30;99.90;;;;;;5037223;28;20968;-67
2022/03/10 03:09:06;;;;;;;0.50;0.50;;;0.30;99.90;;;;;;5036741;28;20434;-67
2022/03/10 03:11:53;;;;;;;0.40;0.40;;;0.30;99.90;;;;;;5038265;28;20436;-67
2022/03/10 03:14:41;;;;;;;0.50;0.50;;;0.50;99.90;;;;;;5039139;28;20422;-67
2022/03/10 03:17:28;;;;;;;0.40;0.40;;;0.30;99.90;;;;;;5057313;23;20488;-68
2022/03/10 03:20:15;;;;;;;0.40;0.40;;;0.30;99.90;;;;;;5034056;28;20438;-69
2022/03/10 03:23:02;;;;;;;0.40;0.40;;;0.30;99.90;;;;;;5033571;28;20457;-69
2022/03/10 03:25:49;;;;;;;0.40;0.40;;;0.30;99.90;;;;;;5034219;28;20426;-69
2022/03/10 03:28:37;;;;;;;0.40;0.40;;;0.30;99.90;;;;;;5052865;28;20445;-68
2022/03/10 03:31:25;;;;;;;0.50;0.50;;;0.20;99.90;;;;;;5054029;28;20834;-69
2022/03/10 03:34:12;;;;;;;0.40;0.40;;;0.20;99.90;;;;;;5053982;28;20480;-69
2022/03/10 03:36:59;;;;;;;0.40;0.40;;;0.20;99.90;;;;;;5053790;28;20459;-69
2022/03/10 03:39:46;;;;;;;0.40;0.40;;;0.30;99.90;;;;;;5054769;28;20748;-69
2022/03/10 03:42:34;;;;;;;0.40;0.40;;;0.20;99.90;;;;;;5053406;28;20445;-69
2022/03/10 03:45:22;;;;;;;0.40;0.40;;;0.20;99.90;;;;;;5053072;28;20433;-71
2022/03/10 03:48:10;;;;;;;0.40;0.40;;;0.20;99.90;;;;;;5053113;28;20445;-68
2022/03/10 03:50:57;;;;;;;0.40;0.40;;;0.20;99.90;;;;;;5052595;28;20433;-68
2022/03/10 03:53:44;;;;;;;0.40;0.40;;;0.20;99.90;;;;;;5052279;28;20482;-69
2022/03/10 03:56:31;;;;;;;0.40;0.40;;;0.20;99.90;;;;;;5053343;28;20428;-69
2022/03/10 03:59:20;;;;;;;0.50;0.50;;;0.20;99.90;;;;;;5045829;28;20457;-69
2022/03/10 04:02:08;;;;;;;0.40;0.40;;;0.20;99.90;;;;;;5052945;28;20425;-70
2022/03/10 04:04:56;;;;;;;0.40;0.40;;;0.20;99.90;;;;;;5057158;28;20417;-71
2022/03/10 04:07:43;;;;;;;0.50;0.50;;;0.20;99.90;;;;;;5071129;28;20445;-69
2022/03/10 04:10:30;;;;;;;0.40;0.40;;;0.20;99.90;;;;;;5070704;28;20454;-68
2022/03/10 04:13:17;;;;;;;0.40;0.40;;;0.10;99.90;;;;;;5071943;28;20481;-69
2022/03/10 04:16:04;;;;;;;0.40;0.40;;;0.10;99.90;;;;;;5072143;28;20555;-68
2022/03/10 04:18:51;;;;;;;0.40;0.40;;;0.10;99.90;;;;;;5071352;28;20432;-69
2022/03/10 04:21:39;;;;;;;0.50;0.50;;;0.10;99.90;;;;;;5089293;28;20424;-68
2022/03/10 04:24:26;;;;;;;0.40;0.40;;;0.10;99.90;;;;;;5091287;28;20468;-68
2022/03/10 04:27:13;;;;;;;0.40;0.40;;;0.00;99.90;;;;;;5081565;28;21040;-69
2022/03/10 04:30:00;;;;;;;0.50;0.50;;;0.10;99.90;;;;;;5080676;28;20424;-69
2022/03/10 04:32:47;;;;;;;0.40;0.40;;;0.10;99.90;;;;;;5074368;28;20485;-69
2022/03/10 04:35:34;;;;;;;0.40;0.40;;;0.00;99.90;;;;;;5072884;28;20514;-69
2022/03/10 04:38:23;;;;;;;0.40;0.40;;;0.00;99.90;;;;;;5072678;28;20458;-69
2022/03/10 04:41:10;;;;;;;0.40;0.40;;;0.20;99.90;;;;;;5072582;28;20782;-69
2022/03/10 04:43:57;;;;;;;0.40;0.40;;;0.10;99.90;;;;;;5072271;28;20537;-72
2022/03/10 04:46:44;;;;;;;0.40;0.40;;;0.20;99.90;;;;;;5071978;28;20489;-69
2022/03/10 04:49:31;;;;;;;0.40;0.40;;;0.00;99.90;;;;;;5072992;28;20489;-69
2022/03/10 04:52:17;;;;;;;0.50;0.50;;;0.00;99.90;;;;;;5072656;28;20474;-70
2022/03/10 04:55:07;;;;;;;0.50;0.50;;;0.00;99.90;;;;;;5073243;28;20432;-70
2022/03/10 04:57:54;;;;;;;1.73;1.60;;;0.00;99.90;;;;;;5094303;28;20467;-69
2022/03/10 05:00:41;;;;;;;0.50;0.50;;;-0.10;99.90;;;;;;5076297;28;20506;-70
2022/03/10 05:03:28;;;;;;;0.40;0.40;;;-0.10;99.90;;;;;;5073595;28;20975;-69
2022/03/10 05:06:15;;;;;;;0.40;0.40;;;-0.20;99.90;;;;;;5072067;28;20463;-70
2022/03/10 05:09:02;;;;;;;0.40;0.40;;;-0.10;99.90;;;;;;5072638;28;20416;-70
2022/03/10 05:11:50;;;;;;;0.50;0.50;;;-0.20;99.90;;;;;;5072463;28;20420;-70
2022/03/10 05:14:37;;;;;;;0.50;0.50;;;-0.20;99.90;;;;;;5072055;28;20424;-70
2022/03/10 05:17:24;;;;;;;0.40;0.40;;;-0.20;99.90;;;;;;5072231;28;20459;-70
2022/03/10 05:20:11;;;;;;;0.50;0.50;;;-0.20;99.90;;;;;;5072262;28;20955;-70
2022/03/10 05:23:02;;;;;;;0.40;0.40;;;-0.20;99.90;;;;;;5073033;28;20434;-70
2022/03/10 05:25:49;;;;;;;0.80;0.80;;;-0.20;99.90;;;;;;5076264;28;20427;-70
2022/03/10 05:28:37;;;;;;;0.40;0.40;;;-0.30;99.90;;;;;;5078883;28;20815;-70
2022/03/10 05:31:24;;;;;;;0.50;0.50;;;-0.30;99.90;;;;;;5079856;28;20951;-70
2022/03/10 05:34:11;;;;;;;0.40;0.40;;;-0.20;99.90;;;;;;5076644;28;20412;-70
2022/03/10 05:36:58;;;;;;;0.40;0.40;;;-0.20;99.90;;;;;;5075427;28;20439;-70
2022/03/10 05:39:44;;;;;;;0.40;0.40;;;-0.20;99.90;;;;;;5086026;28;20938;-70
2022/03/10 05:42:32;;;;;;;0.40;0.40;;;-0.10;99.90;;;;;;5086384;28;20446;-69
2022/03/10 05:45:21;;;;;;;0.40;0.40;;;-0.20;99.90;;;;;;5080195;28;20419;-70
2022/03/10 05:48:08;;;;;;;0.40;0.40;;;-0.20;99.90;;;;;;5075869;28;20451;-70
2022/03/10 05:50:55;;;;;;;0.40;0.40;;;0.00;99.90;;;;;;5075338;28;20766;-70
2022/03/10 05:53:42;;;;;;;0.40;0.40;;;-0.10;99.90;;;;;;5075512;28;20415;-70
2022/03/10 05:56:29;;;;;;;0.40;0.40;;;0.10;99.90;;;;;;5075947;28;20424;-71
2022/03/10 05:59:16;;;;;;;0.40;0.40;;;0.00;99.90;;;;;;5075950;28;20430;-70
2022/03/10 06:02:04;;;;;;;0.40;0.40;;;0.00;99.90;;;;;;5075259;28;20416;-70
2022/03/10 06:04:51;;;;;;;0.40;0.40;;;0.10;99.90;;;;;;5075891;28;20471;-70
2022/03/10 06:07:38;;;;;;;0.40;0.40;;;0.10;99.90;;;;;;5075197;28;20440;-70
2022/03/10 06:10:25;;;;;;;0.50;0.50;;;0.10;99.90;;;;;;5076062;28;20439;-70
2022/03/10 06:13:12;;;;;;;0.40;0.40;;;0.20;99.90;;;;;;5075675;28;20443;-70
2022/03/10 06:16:00;;;;;;;0.40;0.40;;;0.20;99.90;;;;;;5075280;28;20435;-70
2022/03/10 06:18:48;;;;;;;0.40;0.40;;;0.30;99.90;;;;;;5075553;28;20439;-70
2022/03/10 06:21:35;;;;;;;0.40;0.40;;;0.50;99.90;;;;;;5074819;28;20605;-70
2022/03/10 06:24:22;;;;;;;0.50;0.50;;;0.40;99.90;;;;;;5074664;28;20452;-70
2022/03/10 06:27:08;;;;;;;0.40;0.40;;;0.40;99.90;;;;;;5075099;28;20452;-70
2022/03/10 06:29:56;;;;;;;0.40;0.40;;;0.40;99.90;;;;;;5075146;28;20955;-70
2022/03/10 06:32:43;;;;;;;0.43;0.43;;;0.50;99.90;;;;;;5075133;28;20431;-70
2022/03/10 06:35:31;;;;;;;0.40;0.40;;;0.50;99.90;;;;;;5075452;28;21014;-70
2022/03/10 06:38:18;;;;;;;0.40;0.40;;;0.60;99.90;;;;;;5075135;28;20445;-70
2022/03/10 06:41:05;;;;;;;0.40;0.40;;;0.70;99.90;;;;;;5072014;28;20439;-68
2022/03/10 06:43:52;;;;;;;0.40;0.40;;;0.70;99.90;;;;;;5074408;28;20467;-72
2022/03/10 06:46:39;;;;;;;0.40;0.40;;;0.80;99.90;;;;;;5073957;28;20501;-69
2022/03/10 06:49:26;;;;;;;0.40;0.40;;;0.90;99.90;;;;;;5074669;28;20419;-69
2022/03/10 06:52:14;;;;;;;0.40;0.40;;;1.00;99.90;;;;;;5073638;28;20424;-68
2022/03/10 06:55:01;;;;;;;0.40;0.40;;;1.10;99.90;;;;;;5074886;28;20417;-68
2022/03/10 06:57:48;;;;;;;0.50;0.50;;;1.10;99.90;;;;;;5074388;28;20444;-68
2022/03/10 07:00:35;;;;;;;0.40;0.40;;;1.20;99.90;;;;;;5073746;28;20443;-67
2022/03/10 07:03:23;;;;;;;0.50;0.50;;;1.30;99.90;;;;;;5095024;28;21011;-68
2022/03/10 07:06:10;;;;;;;0.40;0.40;;;1.40;99.90;;;;;;5075777;28;20507;-69
2022/03/10 07:08:58;;;;;;;0.40;0.40;;;1.50;99.90;;;;;;5074054;28;20428;-69
2022/03/10 07:11:46;;;;;;;0.40;0.40;;;1.60;99.90;;;;;;5077277;28;20427;-68
2022/03/10 07:14:32;;;;;;;0.60;0.60;;;1.60;99.90;;;;;;5073946;28;20785;-69
2022/03/10 07:17:19;;;;;;;0.40;0.40;;;1.70;99.90;;;;;;5074062;28;20456;-69
2022/03/10 07:20:08;;;;;;;0.40;0.40;;;1.80;99.90;;;;;;5067119;28;20455;-68
2022/03/10 07:22:55;;;;;;;0.40;0.40;;;1.90;99.90;;;;;;5064804;28;20540;-69
2022/03/10 07:25:43;;;;;;;0.40;0.40;;;2.20;99.90;;;;;;5090043;28;20467;-68
2022/03/10 07:28:31;;;;;;;0.40;0.40;;;2.30;99.90;;;;;;5095255;28;20444;-67
2022/03/10 07:31:17;;;;;;;0.40;0.40;;;2.20;99.90;;;;;;5093320;28;20418;-68
2022/03/10 07:34:04;;;;;;;0.40;0.40;;;2.30;99.90;;;;;;5091909;28;20458;-68
2022/03/10 07:36:51;;;;;;;0.40;0.40;;;2.40;99.90;;;;;;5094038;28;20440;-68
2022/03/10 07:39:38;;;;;;;0.40;0.40;;;2.50;99.90;;;;;;5090974;28;20432;-68
2022/03/10 07:42:27;;;;;;;0.70;0.70;;;2.60;99.90;;;;;;5093340;28;20950;-68
2022/03/10 07:45:14;;;;;;;0.50;0.50;;;2.70;99.90;;;;;;5093692;28;20452;-68
2022/03/10 07:48:01;;;;;;;0.40;0.40;;;2.80;99.90;;;;;;5093517;28;20451;-67
2022/03/10 07:50:48;;;;;;;0.40;0.40;;;2.90;99.90;;;;;;5093670;28;20424;-68
2022/03/10 07:53:37;;;;;;;0.40;0.40;;;3.10;99.90;;;;;;5075929;28;20518;-69
2022/03/10 07:56:24;;;;;;;0.40;0.40;;;3.20;99.90;;;;;;5058387;28;20868;-68
2022/03/10 07:59:12;;;;;;;0.43;0.43;;;3.30;99.90;;;;;;5074575;28;20424;-71
2022/03/10 08:01:59;;;;;;;0.40;0.40;;;3.40;99.90;;;;;;5070268;28;20419;-69
2022/03/10 08:04:48;;;;;;;1.67;1.60;;;3.50;99.90;;;;;;5075445;28;20520;-70
2022/03/10 08:07:35;;;;;;;0.70;0.70;;;3.70;99.90;;;;;;5080382;28;20440;-68
2022/03/10 08:10:22;;;;;;;0.50;0.50;;;3.70;99.90;;;;;;5080877;28;20489;-69
2022/03/10 08:13:09;;;;;;;0.40;0.40;;;3.80;99.90;;;;;;5073419;28;20431;-68
2022/03/10 08:15:57;;;;;;;0.40;0.40;;;3.90;99.90;;;;;;5072896;28;20952;-69
2022/03/10 08:18:45;;;;;;;0.40;0.40;;;4.00;99.90;;;;;;5075435;28;20845;-68
2022/03/10 08:21:32;;;;;;;0.70;0.70;;;4.10;99.90;;;;;;5075374;28;20456;-69
2022/03/10 08:24:19;;;;;;;0.40;0.40;;;4.20;99.90;;;;;;5067374;28;20544;-68
2022/03/10 08:27:06;;;;;;;0.40;0.40;;;4.40;99.90;;;;;;5073543;28;20451;-68
2022/03/10 08:29:53;;;;;;;2.43;2.33;;;4.40;99.90;;;;;;5065505;28;20488;-68
2022/03/10 08:32:44;;;;;;;0.40;0.40;;;4.50;99.90;;;;;;5064374;28;20449;-68
2022/03/10 08:35:31;;;;;;;0.40;0.40;;;4.60;99.90;;;;;;5066948;28;20807;-68
2022/03/10 08:38:18;;;;;;;0.40;0.40;;;4.70;99.90;;;;;;5057666;28;20466;-67
2022/03/10 08:41:05;;;;;;;0.50;0.50;;;4.80;99.90;;;;;;5066906;28;20870;-69
2022/03/10 08:43:52;;;;;;;0.40;0.40;;;5.00;99.90;;;;;;5073272;28;20465;-69
2022/03/10 08:46:39;;;;;;;0.50;0.50;;;5.00;99.90;;;;;;5072849;28;20428;-69
2022/03/10 08:49:28;;;;;;;0.60;0.60;;;5.10;99.90;;;;;;5069875;28;20445;-68
2022/03/10 08:52:15;;;;;;;0.40;0.40;;;5.20;99.90;;;;;;5062302;28;20470;-69
2022/03/10 08:55:03;;;;;;;0.40;0.40;;;5.30;99.90;;;;;;5065604;28;20429;-69
2022/03/10 08:57:50;;;;;;;1.27;1.27;;;5.30;99.90;;;;;;5065058;28;20533;-68
2022/03/10 09:00:37;;;;;;;0.63;0.63;;;5.40;99.90;;;;;;5075819;28;20441;-69
2022/03/10 09:03:25;;;;;;;0.57;0.57;;;5.50;99.90;;;;;;5076042;28;20432;-69
2022/03/10 09:06:15;;;;;;;0.40;0.40;;;5.60;99.90;;;;;;5085393;28;20466;-68
2022/03/10 09:09:03;;;;;;;0.50;0.50;;;5.70;99.90;;;;;;5081374;28;20977;-70
2022/03/10 09:11:50;;;;;;;0.40;0.40;;;5.80;99.90;;;;;;5079634;28;20435;-70
2022/03/10 09:14:37;;;;;;;1.57;1.33;;;5.90;99.90;;;;;;5060945;28;20420;-70
2022/03/10 09:17:24;;;;;;;0.40;0.40;;;6.00;99.90;;;;;;5069073;28;20448;-69
2022/03/10 09:20:13;;;;;;;1.17;1.17;;;6.10;99.90;;;;;;5072844;28;20427;-69
2022/03/10 09:23:01;;;;;;;4.60;1.60;;;6.20;99.90;;;;;;5069152;28;20427;-68
2022/03/10 09:25:48;;;;;;;0.77;0.77;;;6.30;99.90;;;;;;5067129;28;20464;-69
2022/03/10 09:28:35;;;;;;;1.23;0.87;;;6.30;99.90;;;;;;5063952;28;20475;-68
2022/03/10 09:31:22;;;;;;;0.50;0.50;;;6.50;99.90;;;;;;5068386;28;20541;-70
2022/03/10 09:34:09;;;;;;;0.40;0.40;;;6.40;99.90;;;;;;5069796;28;20429;-70
2022/03/10 09:36:56;;;;;;;0.40;0.40;;;6.50;99.90;;;;;;5073961;28;20539;-69
2022/03/10 09:39:45;;;;;;;0.83;0.83;;;6.60;99.90;;;;;;5066145;28;20443;-70
2022/03/10 09:42:33;;;;;;;0.40;0.40;;;6.60;99.90;;;;;;5078457;28;20415;-70
2022/03/10 09:45:20;;;;;;;0.50;0.50;;;6.70;99.90;;;;;;5082177;28;20510;-70
2022/03/10 09:48:08;;;;;;;6.53;2.20;;;6.80;99.90;;;;;;5084417;28;20444;-70
2022/03/10 09:50:55;;;;;;;0.70;0.57;;;6.80;99.90;;;;;;5079371;28;21009;-70
2022/03/10 09:53:42;;;;;;;0.40;0.40;;;6.80;99.90;;;;;;5075967;28;20427;-70
2022/03/10 09:56:31;;;;;;;0.50;0.50;;;6.90;99.90;;;;;;5074648;28;20419;-70
2022/03/10 09:59:22;;;;;;;0.40;0.40;;;7.00;99.90;;;;;;5071983;28;20435;-70
2022/03/10 10:02:09;;;;;;;2.57;2.47;;;7.00;99.90;;;;;;5064073;28;20497;-70
2022/03/10 10:04:56;;;;;;;0.40;0.40;;;7.20;99.90;;;;;;5063309;28;21001;-70
2022/03/10 10:08:02;;;;;;;0.40;0.40;;;7.20;99.90;;;;;;5072339;28;20468;-70
2022/03/10 10:10:56;;;;;;;0.50;0.50;;;7.30;99.90;;;;;;5073422;28;20455;-70
2022/03/10 10:13:51;;;;;;;0.40;0.40;;;7.40;99.90;;;;;;5073318;28;20424;-70
2022/03/10 10:16:50;;;;;;;0.40;0.40;;;7.50;99.90;;;;;;5064914;28;21032;-70
2022/03/10 10:19:41;;;;;;;0.40;0.40;;;7.60;99.90;;;;;;5071444;28;20910;-70
2022/03/10 10:22:31;;;;;;;0.40;0.40;;;7.60;99.90;;;;;;5058555;28;20427;-71
2022/03/10 10:25:25;;;;;;;0.93;0.93;;;7.70;99.90;;;;;;5066582;28;20463;-70
2022/03/10 10:28:22;;;;;;;0.40;0.40;;;7.80;99.90;;;;;;5074171;28;20455;-70
2022/03/10 10:31:12;;;;;;;3.17;3.07;;;7.90;99.90;;;;;;5075710;28;20420;-70
2022/03/10 10:34:01;;;;;;;0.40;0.40;;;7.90;99.90;;;;;;5075521;28;20844;-70
2022/03/10 10:36:51;;;;;;;0.50;0.40;;;8.10;99.90;;;;;;5067991;28;20466;-70
2022/03/10 10:39:51;;;;;;;0.40;0.40;;;8.20;99.90;;;;;;5072547;28;20420;-70
2022/03/10 10:42:40;;;;;;;0.40;0.40;;;8.60;99.90;;;;;;5070475;28;21009;-70
2022/03/10 10:45:30;;;;;;;0.40;0.40;;;8.60;99.90;;;;;;5073078;28;20474;-70
2022/03/10 10:48:18;;;;;;;0.40;0.40;;;8.80;99.90;;;;;;5073581;28;20448;-70
2022/03/10 10:51:05;;;;;;;0.40;0.40;;;8.80;99.90;;;;;;5073802;28;20778;-70
2022/03/10 10:53:52;;;;;;;0.40;0.40;;;9.00;99.90;;;;;;5073171;28;20428;-69
2022/03/10 10:56:46;;;;;;;0.40;0.40;;;9.30;99.90;;;;;;5073371;28;20518;-71
2022/03/10 10:59:35;;;;;;;0.40;0.40;;;9.50;99.90;;;;;;5070940;28;20420;-71
2022/03/10 11:02:22;;;;;;;1.00;0.93;;;9.50;99.90;;;;;;5072773;28;20477;-70
2022/03/10 11:05:14;;;;;;;1.93;1.00;;;9.70;99.90;;;;;;5070610;28;20463;-70
2022/03/10 11:08:01;;;;;;;0.47;0.47;;;9.80;99.90;;;;;;5073926;28;20424;-71
2022/03/10 11:10:49;;;;;;;2.63;2.53;;;9.90;99.90;;;;;;5080364;28;20459;-71
2022/03/10 11:13:37;;;;;;;0.40;0.40;;;9.80;99.90;;;;;;5086791;28;20440;-70
2022/03/10 11:16:24;;;;;;;1.33;1.33;;;10.00;99.90;;;;;;5073708;28;20424;-71
2022/03/10 11:19:13;;;;;;;1.67;1.63;;;9.90;99.90;;;;;;5079245;28;20420;-71
2022/03/10 11:22:25;;;;;;;0.40;0.40;;;10.20;99.90;;;;;;5079717;28;20843;-71
2022/03/10 11:25:26;;;;;;;0.40;0.40;;;10.20;99.90;;;;;;5066486;28;20483;-71
2022/03/10 11:28:18;;;;;;;0.70;0.70;;;10.30;99.90;;;;;;5071006;28;20443;-71
2022/03/10 11:31:07;;;;;;;0.40;0.40;;;10.30;99.90;;;;;;5072696;28;20424;-71
2022/03/10 11:33:54;;;;;;;0.40;0.40;;;10.20;99.90;;;;;;5073539;28;20526;-70
2022/03/10 11:36:41;;;;;;;0.50;0.50;;;10.30;99.90;;;;;;5079434;28;20436;-70
2022/03/10 11:39:29;;;;;;;0.90;0.77;;;10.60;99.90;;;;;;5088596;28;20455;-71
2022/03/10 11:42:26;;;;;;;2.63;2.53;;;10.80;99.90;;;;;;5067935;28;20447;-71
2022/03/10 11:45:17;;;;;;;0.40;0.40;;;10.80;99.90;;;;;;5071798;28;21259;-71
2022/03/10 11:48:35;;;;;;;2.80;1.53;;;10.80;99.90;;;;;;5065057;28;20455;-71
2022/03/10 11:51:44;;;;;;;0.50;0.50;;;10.90;99.90;;;;;;5071131;28;20438;-71
2022/03/10 11:54:33;;;;;;;0.40;0.40;;;10.90;99.90;;;;;;5060758;28;20428;-71
2022/03/10 11:57:20;;;;;;;0.50;0.50;;;10.90;99.90;;;;;;5077016;28;20855;-71
2022/03/10 12:00:09;;;;;;;0.50;0.50;;;11.20;99.90;;;;;;5075746;28;20987;-71
2022/03/10 12:02:58;;;;;;;4.00;3.70;;;11.10;99.90;;;;;;5072356;28;20431;-71
2022/03/10 12:05:53;;;;;;;0.50;0.50;;;11.20;99.90;;;;;;5072235;28;20477;-71
2022/03/10 12:08:41;;;;;;;1.13;1.10;;;11.40;99.90;;;;;;5071405;28;20452;-71
2022/03/10 12:11:47;;;;;;;0.40;0.40;;;11.50;99.90;;;;;;5071986;28;20493;-71
2022/03/10 12:14:36;;;;;;;0.40;0.40;;;11.60;99.90;;;;;;5058710;28;20431;-70
2022/03/10 12:17:52;;;;;;;0.40;0.40;;;11.40;99.90;;;;;;5073026;28;20971;-71
2022/03/10 12:20:40;;;;;;;0.50;0.50;;;11.30;99.90;;;;;;5052086;28;20435;-71
2022/03/10 12:23:31;;;;;;;0.50;0.50;;;11.20;99.90;;;;;;5065198;28;20995;-71
2022/03/10 12:26:25;;;;;;;0.70;0.70;;;11.10;99.90;;;;;;5055504;28;20468;-71
2022/03/10 12:29:15;;;;;;;0.70;0.70;;;10.80;99.90;;;;;;5053118;28;20435;-71
2022/03/10 12:32:05;;;;;;;0.50;0.50;;;10.60;99.90;;;;;;5067559;28;20924;-71
2022/03/10 12:34:54;;;;;;;0.60;0.60;;;10.50;99.90;;;;;;5072252;28;20783;-71
2022/03/10 12:37:50;;;;;;;0.40;0.40;;;10.20;99.90;;;;;;5071960;28;20447;-71
2022/03/10 12:40:39;;;;;;;0.70;0.70;;;10.10;99.90;;;;;;5073211;28;20443;-71
2022/03/10 12:43:27;;;;;;;0.40;0.40;;;9.90;99.90;;;;;;5071521;28;20817;-71
2022/03/10 12:46:15;;;;;;;0.40;0.40;;;9.90;99.90;;;;;;5072244;28;20561;-70
2022/03/10 12:49:08;;;;;;;0.40;0.40;;;9.80;99.90;;;;;;5061890;28;20442;-70
2022/03/10 12:51:57;;;;;;;0.40;0.40;;;9.90;99.90;;;;;;5064494;28;20431;-70
2022/03/10 12:54:46;;;;;;;0.50;0.50;;;9.90;99.90;;;;;;5051047;28;20427;-70
2022/03/10 12:57:36;;;;;;;5.13;0.80;;;9.90;99.90;;;;;;5055288;28;20460;-71
2022/03/10 13:00:23;;;;;;;0.40;0.40;;;9.80;99.90;;;;;;5053096;28;20416;-70
2022/03/10 13:03:11;;;;;;;0.60;0.60;;;9.80;99.90;;;;;;5057042;28;20456;-71
2022/03/10 13:05:59;;;;;;;0.50;0.50;;;9.90;99.90;;;;;;5062612;28;20528;-70
2022/03/10 13:08:52;;;;;;;0.40;0.40;;;10.20;99.90;;;;;;5062756;28;20444;-70
2022/03/10 13:11:39;;;;;;;0.70;0.70;;;10.10;99.90;;;;;;5059002;28;20925;-70
2022/03/10 13:14:27;;;;;;;0.40;0.40;;;10.30;99.90;;;;;;5066593;28;20525;-71
2022/03/10 13:17:14;;;;;;;0.40;0.40;;;10.50;99.90;;;;;;5085422;28;20962;-70
2022/03/10 13:20:09;;;;;;;0.70;0.70;;;10.70;99.90;;;;;;5060648;28;20448;-70
2022/03/10 13:22:58;;;;;;;0.40;0.40;;;10.80;99.90;;;;;;5061966;28;20427;-72
2022/03/10 13:25:45;;;;;;;0.40;0.40;;;10.90;99.90;;;;;;5060306;28;20487;-69
2022/03/10 13:28:32;;;;;;;0.67;0.60;;;11.10;99.90;;;;;;5060183;28;20465;-70
2022/03/10 13:31:20;;;;;;;0.40;0.40;;;11.60;99.90;;;;;;5061723;28;20428;-71
2022/03/10 13:34:07;;;;;;;1.50;1.33;;;12.00;99.90;;;;;;5059185;28;20474;-71
2022/03/10 13:36:56;;;;;;;1.17;1.07;;;12.40;99.90;;;;;;5058588;28;20912;-70
2022/03/10 13:39:45;;;;;;;1.47;1.37;;;12.80;99.90;;;;;;5066923;28;20417;-71
2022/03/10 13:42:34;;;;;;;2.50;2.40;;;14.00;99.90;;;;;;5069266;28;20425;-72
2022/03/10 13:45:24;;;;;;;0.40;0.40;;;14.70;99.90;;;;;;5068908;28;20428;-70
2022/03/10 13:48:19;;;;;;;1.17;1.07;;;15.30;99.90;;;;;;5063898;28;20447;-71
2022/03/10 13:51:06;;;;;;;0.60;0.60;;;15.80;99.10;;;;;;5065070;28;20449;-70
2022/03/10 13:53:57;;;;;;;1.73;1.63;;;16.40;96.80;;;;;;5064633;28;20216;-72
2022/03/10 13:56:48;;;;;;;0.80;0.80;;;17.50;94.50;;;;;;5066597;28;22107;-71
2022/03/10 13:59:37;;;;;;;0.55;0.55;;;18.10;91.90;;;;;;5065322;28;20291;-72
2022/03/10 14:02:26;;;;;;;1.30;1.30;;;18.30;89.30;;;;;;5065831;28;20275;-72
2022/03/10 14:05:14;;;;;;;2.88;2.78;;;19.20;86.10;;;;;;5064108;28;20689;-72
2022/03/10 14:08:16;;;;;;;2.47;2.28;;;19.20;82.30;;;;;;5063628;28;20224;-72
2022/03/10 14:11:08;;;;;;;0.68;0.68;;;19.10;79.30;;;;;;5072123;28;20208;-71
2022/03/10 14:14:01;;;;;;;0.40;0.40;;;19.00;78.50;;;;;;5067731;28;20205;-71
2022/03/10 14:16:53;;;;;;;6.18;4.43;;;18.80;77.00;;;;;;5068639;28;20229;-71
2022/03/10 14:19:40;;;;;;;0.73;0.73;;;18.00;76.00;;;;;;5066381;28;20196;-72
2022/03/10 14:22:29;;;;;;;1.75;1.65;;;17.60;76.60;;;;;;5068470;28;20201;-71
2022/03/10 14:25:16;;;;;;;0.40;0.40;;;17.70;76.50;;;;;;5061995;28;20215;-72
2022/03/10 14:28:08;;;;;;;0.40;0.40;;;17.70;76.40;;;;;;5066290;28;20218;-71
2022/03/10 14:30:56;;;;;;;0.50;0.50;;;18.00;75.80;;;;;;5062920;28;20244;-72
2022/03/10 14:33:45;;;;;;;1.95;0.98;;;18.90;74.20;;;;;;5072524;28;20280;-74
2022/03/10 14:36:32;;;;;;;2.80;2.70;;;19.60;71.40;;;;;;5074083;22;20237;-67
2022/03/10 14:39:19;;;;;;;0.98;0.98;;;19.90;69.00;;;;;;5050026;28;20202;-69
2022/03/10 14:42:06;;;;;;;1.83;0.98;;;20.20;67.40;;;;;;5046607;28;20670;-67
2022/03/10 14:44:54;;;;;;;0.63;0.63;;;20.50;66.00;;;;;;5045175;28;20197;-67
2022/03/10 14:47:41;;;;;;;6.63;5.45;;;20.80;65.70;;;;;;5063877;28;20268;-68
2022/03/10 14:50:28;;;;;;;0.50;0.50;;;21.00;63.90;;;;;;5052229;28;20697;-67
2022/03/10 14:53:16;;;;;;;0.40;0.40;;;21.10;62.70;;;;;;5052185;28;20206;-66